Terminal Aerodrome Forecast
Issued by NWS Albuquerque, NM

Home | Current Version | Previous Version | Text Only | Print | Product List | Glossary On
Versions: 1 2 3 4 5 6 7 8 9 10 11 12 13
000
FTUS45 KABQ 282339
TAFABQ
TAF
KABQ 282339Z 2900/2924 11010KT P6SM FEW100 BKN250
     FM290300 08008KT P6SM BKN100 OVC250
     FM291500 12010KT P6SM BKN090 OVC250
     FM291800 15008KT P6SM BKN080 OVC250=

USA.gov is the U.S. government's official web portal to all federal, state and local government web resources and services.